sensor_id;sensor_type;location;lat;lon;timestamp;pressure;altitude;pressure_sealevel;temperature;humidity
68230;BME280;55048;52.220;5.160;2023-04-06T00:00:23;101728.47;;;6.51;51.97
68230;BME280;55048;52.220;5.160;2023-04-06T00:02:48;101704.53;;;6.38;52.12
68230;BME280;55048;52.220;5.160;2023-04-06T00:05:14;101737.69;;;6.62;52.41
68230;BME280;55048;52.220;5.160;2023-04-06T00:07:40;101721.53;;;6.50;52.38
68230;BME280;55048;52.220;5.160;2023-04-06T00:10:06;101732.38;;;6.55;51.77
68230;BME280;55048;52.220;5.160;2023-04-06T00:12:31;101707.00;;;6.39;51.82
68230;BME280;55048;52.220;5.160;2023-04-06T00:14:57;101714.19;;;6.46;51.99
68230;BME280;55048;52.220;5.160;2023-04-06T00:17:22;101694.91;;;6.30;52.08
68230;BME280;55048;52.220;5.160;2023-04-06T00:19:48;101676.91;;;6.19;52.15
68230;BME280;55048;52.220;5.160;2023-04-06T00:22:13;101704.09;;;6.34;52.07
68230;BME280;55048;52.220;5.160;2023-04-06T00:24:39;101705.28;;;6.32;52.11
68230;BME280;55048;52.220;5.160;2023-04-06T00:27:05;101687.28;;;6.21;51.81
68230;BME280;55048;52.220;5.160;2023-04-06T00:29:30;101713.09;;;6.40;51.85
68230;BME280;55048;52.220;5.160;2023-04-06T00:31:56;101706.28;;;6.31;51.78
68230;BME280;55048;52.220;5.160;2023-04-06T00:34:21;101703.00;;;6.29;52.07
68230;BME280;55048;52.220;5.160;2023-04-06T00:36:46;101689.47;;;6.17;52.16
68230;BME280;55048;52.220;5.160;2023-04-06T00:39:12;101700.31;;;6.22;52.29
68230;BME280;55048;52.220;5.160;2023-04-06T00:41:39;101688.03;;;6.14;52.27
68230;BME280;55048;52.220;5.160;2023-04-06T00:44:08;101682.13;;;6.12;52.35
68230;BME280;55048;52.220;5.160;2023-04-06T00:46:34;101687.97;;;6.08;52.55
68230;BME280;55048;52.220;5.160;2023-04-06T00:49:01;101598.78;;;5.59;52.61
68230;BME280;55048;52.220;5.160;2023-04-06T00:51:27;101679.84;;;6.09;52.71
68230;BME280;55048;52.220;5.160;2023-04-06T00:53:52;101690.50;;;6.16;52.53
68230;BME280;55048;52.220;5.160;2023-04-06T00:56:18;101683.28;;;6.10;52.45
68230;BME280;55048;52.220;5.160;2023-04-06T00:58:50;101692.31;;;6.16;52.60
68230;BME280;55048;52.220;5.160;2023-04-06T01:01:15;101649.66;;;5.97;52.49
68230;BME280;55048;52.220;5.160;2023-04-06T01:03:41;101684.19;;;6.17;52.60
68230;BME280;55048;52.220;5.160;2023-04-06T01:06:09;101624.50;;;5.86;52.46
68230;BME280;55048;52.220;5.160;2023-04-06T01:08:38;101634.38;;;5.93;52.52
68230;BME280;55048;52.220;5.160;2023-04-06T01:11:14;101631.53;;;5.94;52.57
68230;BME280;55048;52.220;5.160;2023-04-06T01:13:39;101640.97;;;6.03;52.52
68230;BME280;55048;52.220;5.160;2023-04-06T01:16:11;101616.22;;;5.89;52.27
68230;BME280;55048;52.220;5.160;2023-04-06T01:18:47;101632.41;;;6.01;52.31
68230;BME280;55048;52.220;5.160;2023-04-06T01:21:16;101632.41;;;6.01;52.09
68230;BME280;55048;52.220;5.160;2023-04-06T01:23:59;101653.13;;;6.19;51.93
68230;BME280;55048;52.220;5.160;2023-04-06T01:26:32;101609.59;;;5.94;51.87
68230;BME280;55048;52.220;5.160;2023-04-06T01:28:59;101643.31;;;6.13;51.64
68230;BME280;55048;52.220;5.160;2023-04-06T01:31:27;101608.78;;;5.93;51.74
68230;BME280;55048;52.220;5.160;2023-04-06T01:33:53;101648.09;;;6.24;51.71
68230;BME280;55048;52.220;5.160;2023-04-06T01:36:22;101630.56;;;6.17;51.76
68230;BME280;55048;52.220;5.160;2023-04-06T01:38:56;101649.31;;;6.22;51.56
68230;BME280;55048;52.220;5.160;2023-04-06T01:41:29;101640.00;;;6.26;51.56
68230;BME280;55048;52.220;5.160;2023-04-06T01:43:54;101639.81;;;6.27;51.80
68230;BME280;55048;52.220;5.160;2023-04-06T01:46:23;101566.44;;;5.86;51.36
68230;BME280;55048;52.220;5.160;2023-04-06T01:48:49;101612.31;;;6.22;50.90
68230;BME280;55048;52.220;5.160;2023-04-06T01:51:23;101609.03;;;6.20;51.10
68230;BME280;55048;52.220;5.160;2023-04-06T01:53:59;101616.41;;;6.24;50.97
68230;BME280;55048;52.220;5.160;2023-04-06T01:56:35;101620.13;;;6.30;51.14
68230;BME280;55048;52.220;5.160;2023-04-06T01:59:11;101621.94;;;6.29;50.94
68230;BME280;55048;52.220;5.160;2023-04-06T02:01:40;101621.75;;;6.31;51.09
68230;BME280;55048;52.220;5.160;2023-04-06T02:04:05;101620.13;;;6.30;50.81
68230;BME280;55048;52.220;5.160;2023-04-06T02:06:31;101614.41;;;6.26;50.95
68230;BME280;55048;52.220;5.160;2023-04-06T02:08:58;101611.00;;;6.32;50.93
68230;BME280;55048;52.220;5.160;2023-04-06T02:11:23;101585.25;;;6.20;50.82
68230;BME280;55048;52.220;5.160;2023-04-06T02:13:53;101566.72;;;6.13;50.62
68230;BME280;55048;52.220;5.160;2023-04-06T02:16:18;101562.47;;;6.12;50.89
68230;BME280;55048;52.220;5.160;2023-04-06T02:18:45;101580.19;;;6.18;51.00
68230;BME280;55048;52.220;5.160;2023-04-06T02:21:11;101544.28;;;6.02;50.88
68230;BME280;55048;52.220;5.160;2023-04-06T02:23:36;101556.78;;;6.15;50.94
68230;BME280;55048;52.220;5.160;2023-04-06T02:26:01;101555.97;;;6.14;51.02
68230;BME280;55048;52.220;5.160;2023-04-06T02:28:27;101564.38;;;6.25;50.75
68230;BME280;55048;52.220;5.160;2023-04-06T02:30:52;101546.63;;;6.12;50.88
68230;BME280;55048;52.220;5.160;2023-04-06T02:33:19;101565.47;;;6.30;50.71
68230;BME280;55048;52.220;5.160;2023-04-06T02:35:46;101585.88;;;6.43;50.70
68230;BME280;55048;52.220;5.160;2023-04-06T02:38:12;101548.94;;;6.22;50.88
68230;BME280;55048;52.220;5.160;2023-04-06T02:40:37;101552.03;;;6.25;50.94
68230;BME280;55048;52.220;5.160;2023-04-06T02:43:32;101562.25;;;6.35;50.58
68230;BME280;55048;52.220;5.160;2023-04-06T02:46:11;101547.34;;;6.27;50.69
68230;BME280;55048;52.220;5.160;2023-04-06T02:48:37;101567.47;;;6.50;50.55
68230;BME280;55048;52.220;5.160;2023-04-06T02:51:03;101527.41;;;6.25;50.59
68230;BME280;55048;52.220;5.160;2023-04-06T02:53:29;101549.53;;;6.45;50.60
68230;BME280;55048;52.220;5.160;2023-04-06T02:55:55;101548.75;;;6.51;50.49
68230;BME280;55048;52.220;5.160;2023-04-06T02:58:24;101561.25;;;6.64;50.45
68230;BME280;55048;52.220;5.160;2023-04-06T03:00:53;101542.09;;;6.55;50.50
68230;BME280;55048;52.220;5.160;2023-04-06T03:03:19;101521.66;;;6.43;50.53
68230;BME280;55048;52.220;5.160;2023-04-06T03:05:45;101463.25;;;6.03;50.26
68230;BME280;55048;52.220;5.160;2023-04-06T03:08:11;101540.34;;;6.41;50.53
68230;BME280;55048;52.220;5.160;2023-04-06T03:10:41;101555.78;;;6.65;50.60
68230;BME280;55048;52.220;5.160;2023-04-06T03:13:06;101414.53;;;5.84;50.48
68230;BME280;55048;52.220;5.160;2023-04-06T03:15:43;101443.44;;;5.92;50.65
68230;BME280;55048;52.220;5.160;2023-04-06T03:18:13;101545.84;;;6.68;50.85
68230;BME280;55048;52.220;5.160;2023-04-06T03:20:45;101550.47;;;6.65;50.80
68230;BME280;55048;52.220;5.160;2023-04-06T03:23:13;101556.75;;;6.58;50.83
68230;BME280;55048;52.220;5.160;2023-04-06T03:25:41;101536.41;;;6.58;51.10
68230;BME280;55048;52.220;5.160;2023-04-06T03:28:09;101519.25;;;6.48;51.07
68230;BME280;55048;52.220;5.160;2023-04-06T03:30:41;101544.97;;;6.60;51.00
68230;BME280;55048;52.220;5.160;2023-04-06T03:33:07;101503.72;;;6.38;51.01
68230;BME280;55048;52.220;5.160;2023-04-06T03:35:43;101441.06;;;5.97;51.36
68230;BME280;55048;52.220;5.160;2023-04-06T03:38:09;101522.91;;;6.47;51.20
68230;BME280;55048;52.220;5.160;2023-04-06T03:40:34;101490.25;;;6.26;51.25
68230;BME280;55048;52.220;5.160;2023-04-06T03:43:00;101526.59;;;6.52;51.45
68230;BME280;55048;52.220;5.160;2023-04-06T03:45:25;101521.84;;;6.41;51.42
68230;BME280;55048;52.220;5.160;2023-04-06T03:47:51;101403.28;;;5.75;51.69
68230;BME280;55048;52.220;5.160;2023-04-06T03:50:17;101529.00;;;6.47;51.85
68230;BME280;55048;52.220;5.160;2023-04-06T03:52:43;101455.91;;;5.98;51.74
68230;BME280;55048;52.220;5.160;2023-04-06T03:55:09;101492.25;;;6.24;51.81
68230;BME280;55048;52.220;5.160;2023-04-06T03:57:35;101517.81;;;6.45;51.95
68230;BME280;55048;52.220;5.160;2023-04-06T04:00:00;101476.97;;;6.20;52.32
68230;BME280;55048;52.220;5.160;2023-04-06T04:02:27;101481.88;;;6.23;52.22
68230;BME280;55048;52.220;5.160;2023-04-06T04:04:52;101411.25;;;5.82;52.32
68230;BME280;55048;52.220;5.160;2023-04-06T04:07:18;101419.81;;;5.84;52.47
68230;BME280;55048;52.220;5.160;2023-04-06T04:09:43;101479.78;;;6.11;52.41
68230;BME280;55048;52.220;5.160;2023-04-06T04:12:10;101442.47;;;5.93;52.65
68230;BME280;55048;52.220;5.160;2023-04-06T04:14:35;101481.03;;;6.16;52.63
68230;BME280;55048;52.220;5.160;2023-04-06T04:17:01;101536.25;;;6.38;52.64
68230;BME280;55048;52.220;5.160;2023-04-06T04:19:26;101383.16;;;5.46;53.03
68230;BME280;55048;52.220;5.160;2023-04-06T04:21:51;101485.69;;;6.13;52.66
68230;BME280;55048;52.220;5.160;2023-04-06T04:24:24;101527.28;;;6.33;53.07
68230;BME280;55048;52.220;5.160;2023-04-06T04:26:50;101398.91;;;5.61;53.13
68230;BME280;55048;52.220;5.160;2023-04-06T04:29:15;101432.81;;;5.85;53.39
68230;BME280;55048;52.220;5.160;2023-04-06T04:31:41;101423.59;;;5.75;53.59
68230;BME280;55048;52.220;5.160;2023-04-06T04:34:14;101451.81;;;5.96;53.33
68230;BME280;55048;52.220;5.160;2023-04-06T04:36:40;101502.66;;;6.26;53.54
68230;BME280;55048;52.220;5.160;2023-04-06T04:39:09;101423.19;;;5.78;53.54
68230;BME280;55048;52.220;5.160;2023-04-06T04:41:39;101416.25;;;5.70;53.81
68230;BME280;55048;52.220;5.160;2023-04-06T04:44:08;101502.19;;;6.22;53.64
68230;BME280;55048;52.220;5.160;2023-04-06T04:46:33;101473.84;;;6.09;53.62
68230;BME280;55048;52.220;5.160;2023-04-06T04:48:59;101379.56;;;5.54;53.62
68230;BME280;55048;52.220;5.160;2023-04-06T04:51:25;101308.88;;;5.00;53.75
68230;BME280;55048;52.220;5.160;2023-04-06T04:54:02;101439.34;;;5.89;54.03
68230;BME280;55048;52.220;5.160;2023-04-06T04:56:30;101518.34;;;6.34;53.75
68230;BME280;55048;52.220;5.160;2023-04-06T04:59:04;101419.97;;;5.82;53.94
68230;BME280;55048;52.220;5.160;2023-04-06T05:01:33;101492.13;;;6.32;53.80
68230;BME280;55048;52.220;5.160;2023-04-06T05:04:00;101390.28;;;5.74;54.20
68230;BME280;55048;52.220;5.160;2023-04-06T05:06:25;101402.59;;;5.88;53.99
68230;BME280;55048;52.220;5.160;2023-04-06T05:08:52;101480.69;;;6.25;54.05
68230;BME280;55048;52.220;5.160;2023-04-06T05:11:17;101433.56;;;6.01;53.79
68230;BME280;55048;52.220;5.160;2023-04-06T05:13:48;101445.94;;;6.00;54.03
68230;BME280;55048;52.220;5.160;2023-04-06T05:16:20;101329.22;;;5.27;54.08
68230;BME280;55048;52.220;5.160;2023-04-06T05:18:47;101299.31;;;5.20;53.74
68230;BME280;55048;52.220;5.160;2023-04-06T05:21:13;101364.66;;;5.68;54.00
68230;BME280;55048;52.220;5.160;2023-04-06T05:23:52;101435.88;;;6.10;53.83
68230;BME280;55048;52.220;5.160;2023-04-06T05:26:20;101422.28;;;6.13;53.42
68230;BME280;55048;52.220;5.160;2023-04-06T05:28:46;101465.13;;;6.37;53.87
68230;BME280;55048;52.220;5.160;2023-04-06T05:31:12;101369.25;;;5.87;54.02
68230;BME280;55048;52.220;5.160;2023-04-06T05:33:45;101448.25;;;6.38;53.76
68230;BME280;55048;52.220;5.160;2023-04-06T05:36:14;101485.19;;;6.59;53.84
68230;BME280;55048;52.220;5.160;2023-04-06T05:38:42;101317.00;;;5.48;54.02
68230;BME280;55048;52.220;5.160;2023-04-06T05:41:20;101493.78;;;6.68;53.91
68230;BME280;55048;52.220;5.160;2023-04-06T05:43:51;101484.63;;;6.71;53.71
68230;BME280;55048;52.220;5.160;2023-04-06T05:46:18;101476.47;;;6.65;53.89
68230;BME280;55048;52.220;5.160;2023-04-06T05:48:44;101383.84;;;6.04;53.66
68230;BME280;55048;52.220;5.160;2023-04-06T05:51:12;101350.66;;;5.95;53.88
68230;BME280;55048;52.220;5.160;2023-04-06T05:53:43;101465.06;;;6.58;53.70
68230;BME280;55048;52.220;5.160;2023-04-06T05:56:14;101491.59;;;6.78;53.98
68230;BME280;55048;52.220;5.160;2023-04-06T05:58:43;101522.13;;;6.81;53.83
68230;BME280;55048;52.220;5.160;2023-04-06T06:01:12;101488.81;;;6.86;53.79
68230;BME280;55048;52.220;5.160;2023-04-06T06:03:41;101390.66;;;6.20;53.95
68230;BME280;55048;52.220;5.160;2023-04-06T06:06:07;101423.28;;;6.41;53.78
68230;BME280;55048;52.220;5.160;2023-04-06T06:08:42;101455.97;;;6.68;53.99
68230;BME280;55048;52.220;5.160;2023-04-06T06:11:12;101489.47;;;6.95;54.36
68230;BME280;55048;52.220;5.160;2023-04-06T06:13:38;101463.34;;;6.79;53.70
68230;BME280;55048;52.220;5.160;2023-04-06T06:16:04;101317.38;;;5.94;53.53
68230;BME280;55048;52.220;5.160;2023-04-06T06:18:32;101482.41;;;7.09;53.74
68230;BME280;55048;52.220;5.160;2023-04-06T06:20:58;101385.94;;;6.50;53.58
68230;BME280;55048;52.220;5.160;2023-04-06T06:23:24;101409.81;;;6.70;53.59
68230;BME280;55048;52.220;5.160;2023-04-06T06:25:50;101386.00;;;6.63;53.55
68230;BME280;55048;52.220;5.160;2023-04-06T06:28:16;101423.16;;;6.97;53.31
68230;BME280;55048;52.220;5.160;2023-04-06T06:30:41;101437.66;;;7.21;53.31
68230;BME280;55048;52.220;5.160;2023-04-06T06:33:07;101401.56;;;6.93;53.39
68230;BME280;55048;52.220;5.160;2023-04-06T06:35:32;101441.38;;;7.33;53.38
68230;BME280;55048;52.220;5.160;2023-04-06T06:38:01;101367.19;;;6.86;53.51
68230;BME280;55048;52.220;5.160;2023-04-06T06:40:27;101373.13;;;6.95;53.33
68230;BME280;55048;52.220;5.160;2023-04-06T06:42:54;101428.75;;;7.35;53.40
68230;BME280;55048;52.220;5.160;2023-04-06T06:45:27;101474.47;;;7.83;53.26
68230;BME280;55048;52.220;5.160;2023-04-06T06:47:54;101349.75;;;7.05;53.26
68230;BME280;55048;52.220;5.160;2023-04-06T06:50:19;101437.34;;;7.63;53.30
68230;BME280;55048;52.220;5.160;2023-04-06T06:52:45;101460.38;;;7.76;53.39
68230;BME280;55048;52.220;5.160;2023-04-06T06:55:13;101447.94;;;7.63;53.65
68230;BME280;55048;52.220;5.160;2023-04-06T06:57:39;101419.41;;;7.39;53.80
68230;BME280;55048;52.220;5.160;2023-04-06T07:00:06;101373.75;;;7.10;53.85
68230;BME280;55048;52.220;5.160;2023-04-06T07:02:41;101378.44;;;7.15;54.61
68230;BME280;55048;52.220;5.160;2023-04-06T07:05:19;101472.59;;;7.77;54.20
68230;BME280;55048;52.220;5.160;2023-04-06T07:11:31;101436.13;;;7.46;54.61
68230;BME280;55048;52.220;5.160;2023-04-06T07:13:57;101343.38;;;6.86;54.78
68230;BME280;55048;52.220;5.160;2023-04-06T07:17:01;101302.03;;;6.65;55.18
68230;BME280;55048;52.220;5.160;2023-04-06T07:19:30;101381.31;;;7.27;54.83
68230;BME280;55048;52.220;5.160;2023-04-06T07:22:07;101460.78;;;7.73;55.42
68230;BME280;55048;52.220;5.160;2023-04-06T07:24:33;101296.59;;;6.80;54.51
68230;BME280;55048;52.220;5.160;2023-04-06T07:27:08;101327.31;;;6.95;54.71
68230;BME280;55048;52.220;5.160;2023-04-06T07:29:36;101310.25;;;6.97;55.14
68230;BME280;55048;52.220;5.160;2023-04-06T07:32:05;101434.50;;;7.78;54.99
68230;BME280;55048;52.220;5.160;2023-04-06T07:34:32;101387.25;;;7.49;55.21
68230;BME280;55048;52.220;5.160;2023-04-06T07:36:57;101409.84;;;7.64;55.01
68230;BME280;55048;52.220;5.160;2023-04-06T07:39:31;101390.94;;;7.74;54.95
68230;BME280;55048;52.220;5.160;2023-04-06T07:42:14;101239.66;;;6.84;55.12
68230;BME280;55048;52.220;5.160;2023-04-06T07:44:42;101395.00;;;7.83;55.13
68230;BME280;55048;52.220;5.160;2023-04-06T07:47:12;101453.25;;;8.36;55.13
68230;BME280;55048;52.220;5.160;2023-04-06T07:49:41;101394.19;;;8.03;54.74
68230;BME280;55048;52.220;5.160;2023-04-06T07:52:07;101477.69;;;8.52;54.70
68230;BME280;55048;52.220;5.160;2023-04-06T07:54:35;101409.19;;;8.29;54.67
68230;BME280;55048;52.220;5.160;2023-04-06T07:57:09;101347.31;;;7.97;54.41
68230;BME280;55048;52.220;5.160;2023-04-06T07:59:48;101314.13;;;7.87;54.52
68230;BME280;55048;52.220;5.160;2023-04-06T08:02:13;101306.97;;;7.88;54.59
68230;BME280;55048;52.220;5.160;2023-04-06T08:04:39;101338.09;;;8.19;54.44
68230;BME280;55048;52.220;5.160;2023-04-06T08:07:04;101435.00;;;8.80;54.29
68230;BME280;55048;52.220;5.160;2023-04-06T08:09:30;101422.34;;;8.82;54.25
68230;BME280;55048;52.220;5.160;2023-04-06T08:11:55;101407.63;;;8.86;54.08
68230;BME280;55048;52.220;5.160;2023-04-06T08:14:21;101423.47;;;8.99;53.98
68230;BME280;55048;52.220;5.160;2023-04-06T08:16:54;101404.34;;;8.90;54.09
68230;BME280;55048;52.220;5.160;2023-04-06T08:19:20;101285.31;;;8.11;54.29
68230;BME280;55048;52.220;5.160;2023-04-06T08:21:46;101436.69;;;9.19;54.18
68230;BME280;55048;52.220;5.160;2023-04-06T08:24:12;101405.09;;;9.04;54.31
68230;BME280;55048;52.220;5.160;2023-04-06T08:26:38;101293.22;;;8.37;54.20
68230;BME280;55048;52.220;5.160;2023-04-06T08:29:04;101422.13;;;9.28;54.40
68230;BME280;55048;52.220;5.160;2023-04-06T08:31:33;101404.91;;;9.37;53.98
68230;BME280;55048;52.220;5.160;2023-04-06T08:33:58;101434.16;;;9.62;54.02
68230;BME280;55048;52.220;5.160;2023-04-06T08:36:24;101374.31;;;9.35;54.10
68230;BME280;55048;52.220;5.160;2023-04-06T08:38:49;101455.53;;;9.99;53.94
68230;BME280;55048;52.220;5.160;2023-04-06T08:41:15;101426.31;;;9.99;53.64
68230;BME280;55048;52.220;5.160;2023-04-06T08:43:48;101427.22;;;10.11;53.55
68230;BME280;55048;52.220;5.160;2023-04-06T08:46:15;101407.44;;;10.07;53.55
68230;BME280;55048;52.220;5.160;2023-04-06T08:48:41;101433.72;;;10.40;53.39
68230;BME280;55048;52.220;5.160;2023-04-06T08:51:11;101430.84;;;10.42;53.99
68230;BME280;55048;52.220;5.160;2023-04-06T08:53:37;101434.44;;;10.47;53.88
68230;BME280;55048;52.220;5.160;2023-04-06T08:56:03;101416.13;;;10.39;54.07
68230;BME280;55048;52.220;5.160;2023-04-06T08:58:33;101439.72;;;10.54;54.08
68230;BME280;55048;52.220;5.160;2023-04-06T09:01:00;101407.00;;;10.35;54.33
68230;BME280;55048;52.220;5.160;2023-04-06T09:03:28;101363.41;;;10.11;54.11
68230;BME280;55048;52.220;5.160;2023-04-06T09:05:54;101432.56;;;10.55;54.63
68230;BME280;55048;52.220;5.160;2023-04-06T09:08:19;101445.84;;;10.73;54.10
68230;BME280;55048;52.220;5.160;2023-04-06T09:10:45;101438.00;;;10.60;54.72
68230;BME280;55048;52.220;5.160;2023-04-06T09:13:11;101456.34;;;10.50;55.54
68230;BME280;55048;52.220;5.160;2023-04-06T09:15:37;101449.72;;;10.09;56.21
68230;BME280;55048;52.220;5.160;2023-04-06T09:18:03;101447.88;;;10.09;56.21
68230;BME280;55048;52.220;5.160;2023-04-06T09:20:28;101419.34;;;9.73;57.30
68230;BME280;55048;52.220;5.160;2023-04-06T09:22:54;101424.63;;;9.80;57.92
68230;BME280;55048;52.220;5.160;2023-04-06T09:25:21;101446.41;;;9.88;57.90
68230;BME280;55048;52.220;5.160;2023-04-06T09:27:49;101466.31;;;10.04;57.62
68230;BME280;55048;52.220;5.160;2023-04-06T09:30:23;101445.56;;;9.94;57.58
68230;BME280;55048;52.220;5.160;2023-04-06T09:32:54;101456.78;;;9.96;58.19
68230;BME280;55048;52.220;5.160;2023-04-06T09:35:21;101467.47;;;10.15;57.85
68230;BME280;55048;52.220;5.160;2023-04-06T09:37:47;101462.47;;;10.00;59.90
68230;BME280;55048;52.220;5.160;2023-04-06T09:40:13;101444.75;;;9.94;60.07
68230;BME280;55048;52.220;5.160;2023-04-06T09:42:44;101444.53;;;9.95;61.36
68230;BME280;55048;52.220;5.160;2023-04-06T09:45:10;101440.34;;;10.06;60.51
68230;BME280;55048;52.220;5.160;2023-04-06T09:47:36;101458.75;;;10.08;64.42
68230;BME280;55048;52.220;5.160;2023-04-06T09:50:02;101477.22;;;10.21;62.83
68230;BME280;55048;52.220;5.160;2023-04-06T09:52:33;101449.66;;;10.15;62.69
68230;BME280;55048;52.220;5.160;2023-04-06T09:55:03;101436.06;;;10.05;64.07
68230;BME280;55048;52.220;5.160;2023-04-06T09:57:45;101444.16;;;10.17;65.09
68230;BME280;55048;52.220;5.160;2023-04-06T10:00:11;101432.25;;;10.19;64.83
68230;BME280;55048;52.220;5.160;2023-04-06T10:02:51;101469.31;;;10.14;65.81
68230;BME280;55048;52.220;5.160;2023-04-06T10:05:22;101461.41;;;10.33;64.47
68230;BME280;55048;52.220;5.160;2023-04-06T10:07:54;101461.03;;;10.29;64.15
68230;BME280;55048;52.220;5.160;2023-04-06T10:10:21;101458.75;;;10.33;64.59
68230;BME280;55048;52.220;5.160;2023-04-06T10:12:49;101462.38;;;10.38;64.81
68230;BME280;55048;52.220;5.160;2023-04-06T10:15:23;101405.50;;;10.14;64.45
68230;BME280;55048;52.220;5.160;2023-04-06T10:17:49;101360.53;;;9.69;65.45
68230;BME280;55048;52.220;5.160;2023-04-06T10:20:30;101302.06;;;9.26;65.41
68230;BME280;55048;52.220;5.160;2023-04-06T10:23:05;101467.75;;;10.32;66.40
68230;BME280;55048;52.220;5.160;2023-04-06T10:25:34;101462.47;;;10.25;66.43
68230;BME280;55048;52.220;5.160;2023-04-06T10:28:06;101459.16;;;10.05;68.61
68230;BME280;55048;52.220;5.160;2023-04-06T10:30:41;101455.31;;;10.01;68.79
68230;BME280;55048;52.220;5.160;2023-04-06T10:33:18;101447.06;;;10.09;69.16
68230;BME280;55048;52.220;5.160;2023-04-06T10:35:44;101406.75;;;9.93;69.06
68230;BME280;55048;52.220;5.160;2023-04-06T10:38:10;101457.38;;;10.23;69.93
68230;BME280;55048;52.220;5.160;2023-04-06T10:40:41;101443.88;;;10.00;71.57
68230;BME280;55048;52.220;5.160;2023-04-06T10:43:12;101449.72;;;10.09;72.23
68230;BME280;55048;52.220;5.160;2023-04-06T10:45:39;101418.69;;;9.84;71.95
68230;BME280;55048;52.220;5.160;2023-04-06T10:48:18;101306.34;;;9.02;73.98
68230;BME280;55048;52.220;5.160;2023-04-06T10:50:46;101428.34;;;9.97;72.58
68230;BME280;55048;52.220;5.160;2023-04-06T10:54:04;101324.91;;;9.34;73.74
68230;BME280;55048;52.220;5.160;2023-04-06T10:57:03;101443.25;;;9.73;74.76
68230;BME280;55048;52.220;5.160;2023-04-06T11:00:17;101316.59;;;9.24;74.61
68230;BME280;55048;52.220;5.160;2023-04-06T11:03:06;101413.72;;;9.63;76.79
68230;BME280;55048;52.220;5.160;2023-04-06T11:05:33;101341.47;;;9.29;74.34
68230;BME280;55048;52.220;5.160;2023-04-06T11:07:58;101413.78;;;9.81;75.86
68230;BME280;55048;52.220;5.160;2023-04-06T11:10:24;101361.25;;;9.58;76.96
68230;BME280;55048;52.220;5.160;2023-04-06T11:12:54;101399.78;;;9.92;76.53
68230;BME280;55048;52.220;5.160;2023-04-06T11:15:33;101406.47;;;9.77;76.55
68230;BME280;55048;52.220;5.160;2023-04-06T11:18:03;101406.41;;;9.83;77.14
68230;BME280;55048;52.220;5.160;2023-04-06T11:20:30;101327.28;;;9.42;77.44
68230;BME280;55048;52.220;5.160;2023-04-06T11:22:55;101306.97;;;9.29;78.35
68230;BME280;55048;52.220;5.160;2023-04-06T11:25:20;101313.78;;;9.43;78.13
68230;BME280;55048;52.220;5.160;2023-04-06T11:27:46;101282.94;;;9.17;79.07
68230;BME280;55048;52.220;5.160;2023-04-06T11:30:13;101393.81;;;9.97;78.83
68230;BME280;55048;52.220;5.160;2023-04-06T11:32:43;101408.09;;;10.03;79.83
68230;BME280;55048;52.220;5.160;2023-04-06T11:35:24;101338.31;;;9.64;79.52
68230;BME280;55048;52.220;5.160;2023-04-06T11:37:53;101305.50;;;9.58;78.48
68230;BME280;55048;52.220;5.160;2023-04-06T11:40:22;101393.84;;;10.15;78.64
68230;BME280;55048;52.220;5.160;2023-04-06T11:42:54;101399.00;;;10.35;78.32
68230;BME280;55048;52.220;5.160;2023-04-06T11:45:20;101226.97;;;9.26;77.85
68230;BME280;55048;52.220;5.160;2023-04-06T11:47:55;101357.69;;;10.14;77.85
68230;BME280;55048;52.220;5.160;2023-04-06T11:50:32;101345.81;;;10.17;78.25
68230;BME280;55048;52.220;5.160;2023-04-06T11:52:59;101282.31;;;9.47;78.66
68230;BME280;55048;52.220;5.160;2023-04-06T11:55:26;101284.25;;;9.58;79.42
68230;BME280;55048;52.220;5.160;2023-04-06T11:57:51;101394.16;;;10.07;79.63
68230;BME280;55048;52.220;5.160;2023-04-06T12:00:17;101381.38;;;10.16;80.24
68230;BME280;55048;52.220;5.160;2023-04-06T12:02:54;101265.19;;;9.43;79.44
68230;BME280;55048;52.220;5.160;2023-04-06T12:05:37;101313.50;;;9.77;79.62
68230;BME280;55048;52.220;5.160;2023-04-06T12:08:03;101371.66;;;10.28;79.57
68230;BME280;55048;52.220;5.160;2023-04-06T12:10:29;101372.59;;;10.15;80.75
68230;BME280;55048;52.220;5.160;2023-04-06T12:12:54;101347.56;;;10.05;80.14
68230;BME280;55048;52.220;5.160;2023-04-06T12:15:20;101370.63;;;10.29;79.96
68230;BME280;55048;52.220;5.160;2023-04-06T12:17:45;101296.47;;;9.84;79.27
68230;BME280;55048;52.220;5.160;2023-04-06T12:20:11;101377.38;;;10.32;80.19
68230;BME280;55048;52.220;5.160;2023-04-06T12:22:36;101346.59;;;9.99;80.63
68230;BME280;55048;52.220;5.160;2023-04-06T12:25:02;101372.00;;;10.13;81.38
68230;BME280;55048;52.220;5.160;2023-04-06T12:27:28;101248.06;;;9.39;81.60
68230;BME280;55048;52.220;5.160;2023-04-06T12:29:53;101297.63;;;9.70;81.40
68230;BME280;55048;52.220;5.160;2023-04-06T12:32:19;101329.03;;;9.98;80.62
68230;BME280;55048;52.220;5.160;2023-04-06T12:34:44;101352.94;;;10.16;81.67
68230;BME280;55048;52.220;5.160;2023-04-06T12:37:10;101333.22;;;10.06;81.35
68230;BME280;55048;52.220;5.160;2023-04-06T12:39:35;101361.00;;;10.10;82.15
68230;BME280;55048;52.220;5.160;2023-04-06T12:42:01;101356.84;;;9.95;82.75
68230;BME280;55048;52.220;5.160;2023-04-06T12:44:28;101329.81;;;9.80;82.86
68230;BME280;55048;52.220;5.160;2023-04-06T12:46:53;101355.53;;;10.05;82.57
68230;BME280;55048;52.220;5.160;2023-04-06T12:49:18;101336.81;;;9.93;83.56
68230;BME280;55048;52.220;5.160;2023-04-06T12:51:44;101295.44;;;9.60;83.26
68230;BME280;55048;52.220;5.160;2023-04-06T12:54:10;101266.50;;;9.34;83.99
68230;BME280;55048;52.220;5.160;2023-04-06T12:56:37;101344.13;;;9.97;82.98
68230;BME280;55048;52.220;5.160;2023-04-06T12:59:02;101313.41;;;9.83;83.24
68230;BME280;55048;52.220;5.160;2023-04-06T13:01:28;101333.22;;;10.06;83.12
68230;BME280;55048;52.220;5.160;2023-04-06T13:03:53;101351.03;;;10.05;83.22
68230;BME280;55048;52.220;5.160;2023-04-06T13:06:19;101281.75;;;9.63;83.29
68230;BME280;55048;52.220;5.160;2023-04-06T13:08:44;101255.00;;;9.40;84.50